sensor_id;sensor_type;location;lat;lon;timestamp;pressure;altitude;pressure_sealevel;temperature;humidity
19761;BME280;10039;42.632;23.408;2023-03-18T00:01:01;95419.00;;;2.02;72.30
19761;BME280;10039;42.632;23.408;2023-03-18T00:03:28;95427.31;;;2.04;72.43
19761;BME280;10039;42.632;23.408;2023-03-18T00:06:11;95421.47;;;1.95;72.43
19761;BME280;10039;42.632;23.408;2023-03-18T00:08:38;95416.53;;;1.93;72.28
19761;BME280;10039;42.632;23.408;2023-03-18T00:11:05;95420.31;;;1.77;72.45
19761;BME280;10039;42.632;23.408;2023-03-18T00:13:33;95424.41;;;1.93;73.11
19761;BME280;10039;42.632;23.408;2023-03-18T00:16:03;95423.00;;;1.96;72.65
19761;BME280;10039;42.632;23.408;2023-03-18T00:18:29;95413.56;;;2.14;72.43
19761;BME280;10039;42.632;23.408;2023-03-18T00:20:56;95417.38;;;2.35;71.71
19761;BME280;10039;42.632;23.408;2023-03-18T00:23:23;95424.94;;;2.36;71.19
19761;BME280;10039;42.632;23.408;2023-03-18T00:25:51;95414.66;;;2.50;70.92
19761;BME280;10039;42.632;23.408;2023-03-18T00:28:18;95406.34;;;2.67;70.13
19761;BME280;10039;42.632;23.408;2023-03-18T00:30:43;95410.31;;;2.80;69.73
19761;BME280;10039;42.632;23.408;2023-03-18T00:33:09;95406.28;;;2.86;69.49
19761;BME280;10039;42.632;23.408;2023-03-18T00:35:35;95402.69;;;2.94;68.93
19761;BME280;10039;42.632;23.408;2023-03-18T00:38:02;95404.53;;;2.94;68.91
19761;BME280;10039;42.632;23.408;2023-03-18T00:40:29;95397.53;;;3.01;68.51
19761;BME280;10039;42.632;23.408;2023-03-18T00:43:10;95388.19;;;3.07;68.26
19761;BME280;10039;42.632;23.408;2023-03-18T00:45:38;95394.97;;;3.08;67.69
19761;BME280;10039;42.632;23.408;2023-03-18T00:48:05;95390.13;;;3.10;68.30
19761;BME280;10039;42.632;23.408;2023-03-18T00:50:33;95385.34;;;3.16;68.17
19761;BME280;10039;42.632;23.408;2023-03-18T00:52:59;95388.19;;;3.07;67.75
19761;BME280;10039;42.632;23.408;2023-03-18T00:55:25;95377.66;;;3.07;68.18
19761;BME280;10039;42.632;23.408;2023-03-18T00:57:50;95363.25;;;3.01;68.20
19761;BME280;10039;42.632;23.408;2023-03-18T01:00:16;95326.25;;;2.72;68.05
19761;BME280;10039;42.632;23.408;2023-03-18T01:02:43;95362.19;;;2.83;67.82
19761;BME280;10039;42.632;23.408;2023-03-18T01:05:11;95365.81;;;2.75;68.20
19761;BME280;10039;42.632;23.408;2023-03-18T01:07:37;95367.63;;;2.71;68.88
19761;BME280;10039;42.632;23.408;2023-03-18T01:10:03;95362.84;;;2.54;68.99
19761;BME280;10039;42.632;23.408;2023-03-18T01:12:29;95366.72;;;2.41;69.85
19761;BME280;10039;42.632;23.408;2023-03-18T01:14:54;95366.34;;;2.20;70.87
19761;BME280;10039;42.632;23.408;2023-03-18T01:17:22;95362.94;;;2.39;70.70
19761;BME280;10039;42.632;23.408;2023-03-18T01:19:48;95370.72;;;2.54;69.92
19761;BME280;10039;42.632;23.408;2023-03-18T01:22:14;95344.41;;;2.54;69.54
19761;BME280;10039;42.632;23.408;2023-03-18T01:24:39;95349.00;;;2.61;69.38
19761;BME280;10039;42.632;23.408;2023-03-18T01:27:05;95348.41;;;2.67;69.42
19761;BME280;10039;42.632;23.408;2023-03-18T01:29:32;95360.13;;;2.73;68.85
19761;BME280;10039;42.632;23.408;2023-03-18T01:31:57;95352.78;;;2.82;68.74
19761;BME280;10039;42.632;23.408;2023-03-18T01:34:24;95349.84;;;2.87;68.51
19761;BME280;10039;42.632;23.408;2023-03-18T01:36:50;95355.94;;;2.69;69.24
19761;BME280;10039;42.632;23.408;2023-03-18T01:39:16;95337.34;;;2.39;69.01
19761;BME280;10039;42.632;23.408;2023-03-18T01:41:42;95339.13;;;2.54;69.23
19761;BME280;10039;42.632;23.408;2023-03-18T01:44:14;95344.97;;;2.44;68.98
19761;BME280;10039;42.632;23.408;2023-03-18T01:46:42;95348.78;;;2.47;69.26
19761;BME280;10039;42.632;23.408;2023-03-18T01:49:21;95338.19;;;2.43;69.23
19761;BME280;10039;42.632;23.408;2023-03-18T01:52:03;95339.41;;;2.49;68.85
19761;BME280;10039;42.632;23.408;2023-03-18T01:54:35;95345.47;;;2.50;69.11
19761;BME280;10039;42.632;23.408;2023-03-18T01:57:02;95330.06;;;2.52;68.85
19761;BME280;10039;42.632;23.408;2023-03-18T01:59:30;95340.59;;;2.74;68.64
19761;BME280;10039;42.632;23.408;2023-03-18T02:02:04;95339.66;;;2.63;68.26
19761;BME280;10039;42.632;23.408;2023-03-18T02:04:35;95335.56;;;2.66;68.77
19761;BME280;10039;42.632;23.408;2023-03-18T02:07:03;95307.91;;;2.53;68.52
19761;BME280;10039;42.632;23.408;2023-03-18T02:09:28;95313.50;;;2.51;68.67
19761;BME280;10039;42.632;23.408;2023-03-18T02:11:54;95335.31;;;2.74;68.10
19761;BME280;10039;42.632;23.408;2023-03-18T02:14:23;95329.59;;;2.69;68.14
19761;BME280;10039;42.632;23.408;2023-03-18T02:16:58;95331.75;;;2.41;68.33
19761;BME280;10039;42.632;23.408;2023-03-18T02:22:34;95325.00;;;2.21;70.14
19761;BME280;10039;42.632;23.408;2023-03-18T02:27:34;95336.13;;;2.33;69.81
19761;BME280;10039;42.632;23.408;2023-03-18T02:30:09;95338.06;;;2.36;69.23
19761;BME280;10039;42.632;23.408;2023-03-18T02:32:38;95339.69;;;2.44;69.15
19761;BME280;10039;42.632;23.408;2023-03-18T02:35:06;95333.59;;;2.40;68.72
19761;BME280;10039;42.632;23.408;2023-03-18T02:37:33;95339.69;;;2.44;68.56
19761;BME280;10039;42.632;23.408;2023-03-18T02:40:17;95330.50;;;2.35;68.57
19761;BME280;10039;42.632;23.408;2023-03-18T02:42:45;95331.38;;;2.20;68.79
19761;BME280;10039;42.632;23.408;2023-03-18T02:45:39;95340.28;;;2.34;68.77
19761;BME280;10039;42.632;23.408;2023-03-18T02:48:10;95342.31;;;2.22;68.46
19761;BME280;10039;42.632;23.408;2023-03-18T02:50:37;95334.75;;;2.20;68.47
19761;BME280;10039;42.632;23.408;2023-03-18T02:53:04;95321.63;;;2.02;68.63
19761;BME280;10039;42.632;23.408;2023-03-18T02:55:29;95329.25;;;2.07;69.09
19761;BME280;10039;42.632;23.408;2023-03-18T02:57:55;95313.03;;;1.86;68.89
19761;BME280;10039;42.632;23.408;2023-03-18T03:00:21;95327.56;;;1.80;69.38
19761;BME280;10039;42.632;23.408;2023-03-18T03:02:47;95319.78;;;1.49;70.10
19761;BME280;10039;42.632;23.408;2023-03-18T03:05:13;95331.25;;;1.75;70.24
19761;BME280;10039;42.632;23.408;2023-03-18T03:07:39;95335.31;;;1.54;70.51
19761;BME280;10039;42.632;23.408;2023-03-18T03:10:06;95337.66;;;1.78;70.65
19761;BME280;10039;42.632;23.408;2023-03-18T03:12:32;95324.25;;;1.64;70.19
19761;BME280;10039;42.632;23.408;2023-03-18T03:14:57;95319.25;;;1.78;70.16
19761;BME280;10039;42.632;23.408;2023-03-18T03:17:23;95327.72;;;1.68;70.13
19761;BME280;10039;42.632;23.408;2023-03-18T03:19:49;95335.44;;;1.42;70.38
19761;BME280;10039;42.632;23.408;2023-03-18T03:22:15;95329.63;;;1.52;70.91
19761;BME280;10039;42.632;23.408;2023-03-18T03:24:42;95335.44;;;1.42;70.31
19761;BME280;10039;42.632;23.408;2023-03-18T03:27:08;95330.25;;;1.45;71.07
19761;BME280;10039;42.632;23.408;2023-03-18T03:29:33;95325.06;;;1.49;71.00
19761;BME280;10039;42.632;23.408;2023-03-18T03:31:59;95342.13;;;1.74;70.61
19761;BME280;10039;42.632;23.408;2023-03-18T03:34:26;95327.13;;;1.40;70.59
19761;BME280;10039;42.632;23.408;2023-03-18T03:36:51;95362.94;;;1.29;70.58
19761;BME280;10039;42.632;23.408;2023-03-18T03:39:17;95353.25;;;1.33;70.79
19761;BME280;10039;42.632;23.408;2023-03-18T03:41:43;95343.28;;;1.23;70.53
19761;BME280;10039;42.632;23.408;2023-03-18T03:44:08;95357.84;;;1.36;70.06
19761;BME280;10039;42.632;23.408;2023-03-18T03:46:34;95345.34;;;1.48;70.09
19761;BME280;10039;42.632;23.408;2023-03-18T03:48:59;95351.06;;;1.35;70.21
19761;BME280;10039;42.632;23.408;2023-03-18T03:51:25;95348.03;;;1.17;70.47
19761;BME280;10039;42.632;23.408;2023-03-18T03:53:50;95346.72;;;0.93;70.88
19761;BME280;10039;42.632;23.408;2023-03-18T03:56:15;95350.34;;;0.88;71.01
19761;BME280;10039;42.632;23.408;2023-03-18T03:58:41;95353.56;;;0.66;72.02
19761;BME280;10039;42.632;23.408;2023-03-18T04:01:07;95345.28;;;0.80;72.34
19761;BME280;10039;42.632;23.408;2023-03-18T04:03:32;95362.38;;;1.05;72.33
19761;BME280;10039;42.632;23.408;2023-03-18T04:05:58;95357.59;;;1.25;71.60
19761;BME280;10039;42.632;23.408;2023-03-18T04:08:24;95361.78;;;1.11;71.06
19761;BME280;10039;42.632;23.408;2023-03-18T04:10:50;95365.31;;;1.34;71.10
19761;BME280;10039;42.632;23.408;2023-03-18T04:13:15;95344.19;;;1.30;70.61
19761;BME280;10039;42.632;23.408;2023-03-18T04:15:41;95369.84;;;1.52;70.07
19761;BME280;10039;42.632;23.408;2023-03-18T04:18:07;95380.84;;;1.58;69.45
19761;BME280;10039;42.632;23.408;2023-03-18T04:20:34;95381.47;;;1.51;69.66
19761;BME280;10039;42.632;23.408;2023-03-18T04:23:00;95374.91;;;1.61;69.61
19761;BME280;10039;42.632;23.408;2023-03-18T04:25:26;95362.84;;;1.60;68.91
19761;BME280;10039;42.632;23.408;2023-03-18T04:27:51;95388.84;;;1.80;68.96
19761;BME280;10039;42.632;23.408;2023-03-18T04:30:17;95381.28;;;1.79;68.56
19761;BME280;10039;42.632;23.408;2023-03-18T04:32:44;95376.25;;;1.20;68.95
19761;BME280;10039;42.632;23.408;2023-03-18T04:35:10;95393.03;;;0.85;70.03
19761;BME280;10039;42.632;23.408;2023-03-18T04:37:36;95386.94;;;0.97;70.62
19761;BME280;10039;42.632;23.408;2023-03-18T04:40:02;95403.66;;;0.89;70.67
19761;BME280;10039;42.632;23.408;2023-03-18T04:42:29;95401.34;;;0.87;71.07
19761;BME280;10039;42.632;23.408;2023-03-18T04:44:55;95413.53;;;0.64;71.48
19761;BME280;10039;42.632;23.408;2023-03-18T04:47:20;95413.88;;;0.35;72.40
19761;BME280;10039;42.632;23.408;2023-03-18T04:49:46;95415.19;;;0.41;72.87
19761;BME280;10039;42.632;23.408;2023-03-18T04:52:12;95404.78;;;0.60;72.92
19761;BME280;10039;42.632;23.408;2023-03-18T04:54:37;95418.81;;;0.95;72.15
19761;BME280;10039;42.632;23.408;2023-03-18T04:57:04;95418.31;;;1.05;71.57
19761;BME280;10039;42.632;23.408;2023-03-18T04:59:31;95415.56;;;0.86;71.95
19761;BME280;10039;42.632;23.408;2023-03-18T05:01:56;95414.63;;;0.63;72.71
19761;BME280;10039;42.632;23.408;2023-03-18T05:04:21;95432.31;;;0.66;73.75
19761;BME280;10039;42.632;23.408;2023-03-18T05:06:48;95407.19;;;0.65;73.67
19761;BME280;10039;42.632;23.408;2023-03-18T05:09:13;95412.59;;;0.72;73.98
19761;BME280;10039;42.632;23.408;2023-03-18T05:11:39;95410.16;;;0.79;74.02
19761;BME280;10039;42.632;23.408;2023-03-18T05:14:04;95393.97;;;0.77;74.21
19761;BME280;10039;42.632;23.408;2023-03-18T05:16:30;95395.66;;;0.70;74.06
19761;BME280;10039;42.632;23.408;2023-03-18T05:18:55;95393.13;;;0.73;74.27
19761;BME280;10039;42.632;23.408;2023-03-18T05:21:20;95387.69;;;0.66;74.42
19761;BME280;10039;42.632;23.408;2023-03-18T05:23:46;95391.69;;;0.76;74.39
19761;BME280;10039;42.632;23.408;2023-03-18T05:26:11;95403.78;;;0.80;74.07
19761;BME280;10039;42.632;23.408;2023-03-18T05:28:37;95382.22;;;0.87;74.15
19761;BME280;10039;42.632;23.408;2023-03-18T05:31:04;95373.47;;;0.83;74.05
19761;BME280;10039;42.632;23.408;2023-03-18T05:33:29;95388.38;;;1.09;73.64
19761;BME280;10039;42.632;23.408;2023-03-18T05:35:55;95392.53;;;1.26;73.26
19761;BME280;10039;42.632;23.408;2023-03-18T05:38:21;95384.22;;;1.24;73.13
19761;BME280;10039;42.632;23.408;2023-03-18T05:40:47;95399.69;;;1.44;73.18
19761;BME280;10039;42.632;23.408;2023-03-18T05:43:12;95398.34;;;1.50;72.37
19761;BME280;10039;42.632;23.408;2023-03-18T05:45:38;95394.34;;;1.56;72.23
19761;BME280;10039;42.632;23.408;2023-03-18T05:48:04;95372.06;;;1.69;72.34
19761;BME280;10039;42.632;23.408;2023-03-18T05:50:36;95392.59;;;1.98;71.63
19761;BME280;10039;42.632;23.408;2023-03-18T05:53:03;95398.19;;;1.97;70.58
19761;BME280;10039;42.632;23.408;2023-03-18T05:55:29;95388.69;;;1.92;71.09
19761;BME280;10039;42.632;23.408;2023-03-18T05:57:55;95385.81;;;2.16;70.46
19761;BME280;10039;42.632;23.408;2023-03-18T06:00:21;95410.53;;;2.30;70.35
19761;BME280;10039;42.632;23.408;2023-03-18T06:02:48;95411.47;;;2.60;70.15
19761;BME280;10039;42.632;23.408;2023-03-18T06:05:16;95382.84;;;2.59;69.16
19761;BME280;10039;42.632;23.408;2023-03-18T06:07:43;95413.63;;;2.96;69.64
19761;BME280;10039;42.632;23.408;2023-03-18T06:10:10;95402.31;;;3.18;69.14
19761;BME280;10039;42.632;23.408;2023-03-18T06:12:36;95407.13;;;3.13;68.75
19761;BME280;10039;42.632;23.408;2023-03-18T06:15:03;95415.66;;;3.06;69.68
19761;BME280;10039;42.632;23.408;2023-03-18T06:17:28;95414.13;;;3.28;69.78
19761;BME280;10039;42.632;23.408;2023-03-18T06:19:53;95415.13;;;3.42;69.89
19761;BME280;10039;42.632;23.408;2023-03-18T06:22:19;95431.47;;;3.51;69.71
19761;BME280;10039;42.632;23.408;2023-03-18T06:24:44;95404.78;;;3.56;69.24
19761;BME280;10039;42.632;23.408;2023-03-18T06:27:10;95416.94;;;3.38;68.37
19761;BME280;10039;42.632;23.408;2023-03-18T06:29:35;95422.06;;;3.53;68.79
19761;BME280;10039;42.632;23.408;2023-03-18T06:32:01;95402.94;;;3.34;68.75
19761;BME280;10039;42.632;23.408;2023-03-18T06:34:27;95410.81;;;3.56;69.33
19761;BME280;10039;42.632;23.408;2023-03-18T06:36:53;95405.94;;;3.58;68.61
19761;BME280;10039;42.632;23.408;2023-03-18T06:39:18;95394.91;;;3.79;68.60
19761;BME280;10039;42.632;23.408;2023-03-18T06:41:45;95374.00;;;3.93;68.69
19761;BME280;10039;42.632;23.408;2023-03-18T06:44:11;95386.91;;;4.31;67.71
19761;BME280;10039;42.632;23.408;2023-03-18T06:46:37;95390.13;;;4.50;68.11
19761;BME280;10039;42.632;23.408;2023-03-18T06:49:03;95378.94;;;4.63;67.80
19761;BME280;10039;42.632;23.408;2023-03-18T06:51:28;95382.31;;;4.97;66.74
19761;BME280;10039;42.632;23.408;2023-03-18T06:53:54;95382.78;;;5.06;65.79
19761;BME280;10039;42.632;23.408;2023-03-18T06:56:20;95401.03;;;5.21;65.69
19761;BME280;10039;42.632;23.408;2023-03-18T06:58:46;95356.06;;;5.21;65.12
19761;BME280;10039;42.632;23.408;2023-03-18T07:01:11;95393.00;;;5.57;64.74
19761;BME280;10039;42.632;23.408;2023-03-18T07:03:38;95375.59;;;5.60;63.28
19761;BME280;10039;42.632;23.408;2023-03-18T07:06:03;95380.50;;;5.58;63.51
19761;BME280;10039;42.632;23.408;2023-03-18T07:08:29;95369.50;;;5.52;63.61
19761;BME280;10039;42.632;23.408;2023-03-18T07:10:55;95381.34;;;5.65;63.67
19761;BME280;10039;42.632;23.408;2023-03-18T07:13:20;95385.97;;;5.79;63.34
19761;BME280;10039;42.632;23.408;2023-03-18T07:15:46;95394.31;;;5.81;63.67
19761;BME280;10039;42.632;23.408;2023-03-18T07:18:12;95370.69;;;5.55;63.64
19761;BME280;10039;42.632;23.408;2023-03-18T07:20:38;95385.31;;;5.92;64.14
19761;BME280;10039;42.632;23.408;2023-03-18T07:23:04;95380.16;;;6.27;62.96
19761;BME280;10039;42.632;23.408;2023-03-18T07:25:30;95381.22;;;6.09;62.47
19761;BME280;10039;42.632;23.408;2023-03-18T07:27:58;95380.22;;;6.38;63.45
19761;BME280;10039;42.632;23.408;2023-03-18T07:30:27;95384.09;;;6.68;63.38
19761;BME280;10039;42.632;23.408;2023-03-18T07:32:53;95375.03;;;6.90;62.59
19761;BME280;10039;42.632;23.408;2023-03-18T07:35:19;95396.22;;;6.76;61.39
19761;BME280;10039;42.632;23.408;2023-03-18T07:37:46;95392.81;;;6.68;63.57
19761;BME280;10039;42.632;23.408;2023-03-18T07:40:12;95387.16;;;6.84;62.79
19761;BME280;10039;42.632;23.408;2023-03-18T07:42:38;95375.84;;;7.11;61.91
19761;BME280;10039;42.632;23.408;2023-03-18T07:45:07;95379.25;;;7.26;61.91
19761;BME280;10039;42.632;23.408;2023-03-18T07:47:32;95382.25;;;7.73;60.86
19761;BME280;10039;42.632;23.408;2023-03-18T07:49:58;95384.56;;;7.29;60.08
19761;BME280;10039;42.632;23.408;2023-03-18T07:52:24;95387.97;;;7.12;60.85
19761;BME280;10039;42.632;23.408;2023-03-18T07:54:49;95374.31;;;7.24;61.57
19761;BME280;10039;42.632;23.408;2023-03-18T07:57:15;95392.50;;;7.74;62.01
19761;BME280;10039;42.632;23.408;2023-03-18T07:59:41;95381.09;;;7.91;58.58
19761;BME280;10039;42.632;23.408;2023-03-18T08:02:13;95365.91;;;7.88;59.38
19761;BME280;10039;42.632;23.408;2023-03-18T08:04:40;95377.19;;;8.38;57.93
19761;BME280;10039;42.632;23.408;2023-03-18T08:07:07;95381.25;;;8.60;57.84
19761;BME280;10039;42.632;23.408;2023-03-18T08:09:32;95382.88;;;8.36;57.17
19761;BME280;10039;42.632;23.408;2023-03-18T08:11:58;95370.72;;;8.32;56.83
19761;BME280;10039;42.632;23.408;2023-03-18T08:14:24;95381.75;;;8.34;57.22
19761;BME280;10039;42.632;23.408;2023-03-18T08:16:50;95380.84;;;8.65;58.02
19761;BME280;10039;42.632;23.408;2023-03-18T08:19:15;95381.47;;;8.89;57.29
19761;BME280;10039;42.632;23.408;2023-03-18T08:21:40;95371.53;;;9.00;55.02
19761;BME280;10039;42.632;23.408;2023-03-18T08:24:07;95380.28;;;8.97;55.97
19761;BME280;10039;42.632;23.408;2023-03-18T08:26:34;95383.69;;;9.01;55.54
19761;BME280;10039;42.632;23.408;2023-03-18T08:28:59;95396.47;;;9.24;55.26
19761;BME280;10039;42.632;23.408;2023-03-18T08:31:25;95386.19;;;8.58;56.70
19761;BME280;10039;42.632;23.408;2023-03-18T08:33:50;95375.81;;;8.81;55.88
19761;BME280;10039;42.632;23.408;2023-03-18T08:36:18;95380.31;;;8.90;55.98
19761;BME280;10039;42.632;23.408;2023-03-18T08:38:44;95381.22;;;8.67;56.52
19761;BME280;10039;42.632;23.408;2023-03-18T08:41:09;95377.91;;;8.38;58.76
19761;BME280;10039;42.632;23.408;2023-03-18T08:43:35;95381.13;;;8.81;56.27
19761;BME280;10039;42.632;23.408;2023-03-18T08:46:00;95384.44;;;9.05;56.70
19761;BME280;10039;42.632;23.408;2023-03-18T08:48:26;95369.97;;;9.06;55.58
19761;BME280;10039;42.632;23.408;2023-03-18T08:50:51;95380.50;;;9.20;55.12
19761;BME280;10039;42.632;23.408;2023-03-18T08:53:18;95386.88;;;9.33;54.77
19761;BME280;10039;42.632;23.408;2023-03-18T08:55:43;95373.53;;;9.37;54.43
19761;BME280;10039;42.632;23.408;2023-03-18T08:58:09;95367.31;;;9.03;54.44
19761;BME280;10039;42.632;23.408;2023-03-18T09:00:37;95382.84;;;9.15;54.82
19761;BME280;10039;42.632;23.408;2023-03-18T09:03:04;95382.25;;;8.87;54.55
19761;BME280;10039;42.632;23.408;2023-03-18T09:05:31;95381.59;;;8.69;55.76
19761;BME280;10039;42.632;23.408;2023-03-18T09:07:57;95389.94;;;8.67;55.80
19761;BME280;10039;42.632;23.408;2023-03-18T09:10:23;95383.69;;;8.98;56.48
19761;BME280;10039;42.632;23.408;2023-03-18T09:12:49;95385.78;;;9.27;55.41
19761;BME280;10039;42.632;23.408;2023-03-18T09:15:15;95376.66;;;9.28;55.93
19761;BME280;10039;42.632;23.408;2023-03-18T09:17:41;95387.16;;;9.46;55.61
19761;BME280;10039;42.632;23.408;2023-03-18T09:20:12;95380.19;;;9.59;54.15
19761;BME280;10039;42.632;23.408;2023-03-18T09:22:40;95385.88;;;9.64;54.83
19761;BME280;10039;42.632;23.408;2023-03-18T09:25:07;95359.03;;;9.41;52.65
19761;BME280;10039;42.632;23.408;2023-03-18T09:27:32;95392.41;;;9.56;52.76
19761;BME280;10039;42.632;23.408;2023-03-18T09:29:58;95389.88;;;9.39;52.44
19761;BME280;10039;42.632;23.408;2023-03-18T09:32:24;95386.56;;;9.24;51.26
19761;BME280;10039;42.632;23.408;2023-03-18T09:34:50;95379.47;;;9.07;51.89
19761;BME280;10039;42.632;23.408;2023-03-18T09:37:16;95377.84;;;9.20;50.07
19761;BME280;10039;42.632;23.408;2023-03-18T09:39:43;95388.09;;;9.25;50.10
19761;BME280;10039;42.632;23.408;2023-03-18T09:45:13;95374.97;;;9.48;50.94
19761;BME280;10039;42.632;23.408;2023-03-18T09:50:46;95376.53;;;9.42;51.46
19761;BME280;10039;42.632;23.408;2023-03-18T09:53:36;95364.84;;;9.26;50.42
19761;BME280;10039;42.632;23.408;2023-03-18T09:56:11;95381.94;;;9.32;49.21
19761;BME280;10039;42.632;23.408;2023-03-18T10:01:11;95379.81;;;9.13;50.88
19761;BME280;10039;42.632;23.408;2023-03-18T10:06:47;95361.16;;;9.09;50.47
19761;BME280;10039;42.632;23.408;2023-03-18T10:09:19;95366.81;;;9.22;49.89
19761;BME280;10039;42.632;23.408;2023-03-18T10:11:58;95378.13;;;9.36;49.61
19761;BME280;10039;42.632;23.408;2023-03-18T10:17:18;95380.38;;;9.38;50.26
19761;BME280;10039;42.632;23.408;2023-03-18T10:20:00;95386.53;;;9.28;46.48
19761;BME280;10039;42.632;23.408;2023-03-18T10:25:34;95370.47;;;8.84;47.05
19761;BME280;10039;42.632;23.408;2023-03-18T10:33:35;95366.59;;;8.95;46.42
19761;BME280;10039;42.632;23.408;2023-03-18T10:36:24;95366.25;;;8.93;46.56
19761;BME280;10039;42.632;23.408;2023-03-18T10:38:54;95365.84;;;8.95;46.91
19761;BME280;10039;42.632;23.408;2023-03-18T10:41:33;95366.19;;;9.00;46.14
19761;BME280;10039;42.632;23.408;2023-03-18T10:46:43;95365.50;;;8.89;44.10
19761;BME280;10039;42.632;23.408;2023-03-18T10:49:16;95370.78;;;8.96;44.54
19761;BME280;10039;42.632;23.408;2023-03-18T10:51:53;95373.78;;;9.05;43.91
19761;BME280;10039;42.632;23.408;2023-03-18T10:54:41;95371.06;;;9.09;43.68
19761;BME280;10039;42.632;23.408;2023-03-18T10:57:15;95363.16;;;8.98;43.19
19761;BME280;10039;42.632;23.408;2023-03-18T10:59:42;95368.41;;;9.09;43.79
19761;BME280;10039;42.632;23.408;2023-03-18T11:02:36;95354.59;;;9.24;43.36
19761;BME280;10039;42.632;23.408;2023-03-18T11:05:23;95346.44;;;9.45;44.32
19761;BME280;10039;42.632;23.408;2023-03-18T11:08:03;95348.56;;;9.64;45.26
19761;BME280;10039;42.632;23.408;2023-03-18T11:10:35;95342.00;;;9.72;43.08
19761;BME280;10039;42.632;23.408;2023-03-18T11:13:02;95360.50;;;9.49;43.52
19761;BME280;10039;42.632;23.408;2023-03-18T11:15:28;95354.16;;;9.36;42.05
19761;BME280;10039;42.632;23.408;2023-03-18T11:18:01;95358.38;;;9.30;42.07
19761;BME280;10039;42.632;23.408;2023-03-18T11:20:36;95348.50;;;9.27;41.92
19761;BME280;10039;42.632;23.408;2023-03-18T11:23:18;95353.91;;;9.13;42.66
19761;BME280;10039;42.632;23.408;2023-03-18T11:25:48;95346.47;;;8.94;41.94
19761;BME280;10039;42.632;23.408;2023-03-18T11:28:22;95336.63;;;8.88;43.02
19761;BME280;10039;42.632;23.408;2023-03-18T11:30:54;95343.31;;;9.10;43.51
19761;BME280;10039;42.632;23.408;2023-03-18T11:33:30;95334.72;;;8.88;42.61
19761;BME280;10039;42.632;23.408;2023-03-18T11:35:58;95303.38;;;8.59;42.75
19761;BME280;10039;42.632;23.408;2023-03-18T11:38:32;95343.47;;;8.89;44.30
19761;BME280;10039;42.632;23.408;2023-03-18T11:41:05;95347.59;;;8.93;43.45
19761;BME280;10039;42.632;23.408;2023-03-18T11:43:33;95329.16;;;8.62;43.46
19761;BME280;10039;42.632;23.408;2023-03-18T11:46:04;95350.31;;;8.87;42.89
19761;BME280;10039;42.632;23.408;2023-03-18T11:48:35;95332.75;;;8.99;43.81
19761;BME280;10039;42.632;23.408;2023-03-18T11:54:12;95331.69;;;9.34;42.70
19761;BME280;10039;42.632;23.408;2023-03-18T11:57:06;95337.84;;;9.27;42.21
19761;BME280;10039;42.632;23.408;2023-03-18T12:00:04;95334.56;;;9.09;42.59
19761;BME280;10039;42.632;23.408;2023-03-18T12:07:55;95338.22;;;9.29;43.76
19761;BME280;10039;42.632;23.408;2023-03-18T12:10:31;95340.19;;;9.18;43.32
19761;BME280;10039;42.632;23.408;2023-03-18T12:15:45;95333.41;;;9.14;43.27
19761;BME280;10039;42.632;23.408;2023-03-18T12:18:35;95340.41;;;9.38;43.08
19761;BME280;10039;42.632;23.408;2023-03-18T12:26:50;95341.56;;;9.37;42.29
19761;BME280;10039;42.632;23.408;2023-03-18T12:43:27;95333.63;;;9.30;42.04
19761;BME280;10039;42.632;23.408;2023-03-18T12:46:07;95331.00;;;9.26;42.49
19761;BME280;10039;42.632;23.408;2023-03-18T12:48:41;95336.81;;;9.14;41.46
19761;BME280;10039;42.632;23.408;2023-03-18T12:51:16;95331.88;;;9.09;41.92
19761;BME280;10039;42.632;23.408;2023-03-18T12:53:47;95341.22;;;9.35;42.15
19761;BME280;10039;42.632;23.408;2023-03-18T12:56:23;95334.00;;;9.32;41.36
19761;BME280;10039;42.632;23.408;2023-03-18T12:58:51;95325.56;;;9.40;41.15
19761;BME280;10039;42.632;23.408;2023-03-18T13:01:30;95326.25;;;9.48;41.37
19761;BME280;10039;42.632;23.408;2023-03-18T13:04:01;95336.19;;;9.44;40.82
19761;BME280;10039;42.632;23.408;2023-03-18T13:06:50;95317.13;;;9.45;42.29
19761;BME280;10039;42.632;23.408;2023-03-18T13:09:26;95330.19;;;9.36;41.15
19761;BME280;10039;42.632;23.408;2023-03-18T13:12:08;95330.59;;;9.31;41.79
19761;BME280;10039;42.632;23.408;2023-03-18T13:14:45;95332.84;;;9.36;40.89
19761;BME280;10039;42.632;23.408;2023-03-18T13:17:16;95315.13;;;9.12;40.74
19761;BME280;10039;42.632;23.408;2023-03-18T13:19:46;95311.59;;;9.26;41.20
19761;BME280;10039;42.632;23.408;2023-03-18T13:22:45;95319.44;;;9.43;41.37
19761;BME280;10039;42.632;23.408;2023-03-18T13:36:41;95330.13;;;9.40;41.75
19761;BME280;10039;42.632;23.408;2023-03-18T13:39:21;95328.72;;;9.28;40.40
19761;BME280;10039;42.632;23.408;2023-03-18T13:42:32;95326.38;;;9.37;42.41
19761;BME280;10039;42.632;23.408;2023-03-18T13:47:31;95322.03;;;9.50;41.76
19761;BME280;10039;42.632;23.408;2023-03-18T13:50:45;95313.56;;;9.62;40.45
19761;BME280;10039;42.632;23.408;2023-03-18T13:52:47;95308.19;;;9.69;39.18
19761;BME280;10039;42.632;23.408;2023-03-18T13:55:30;95313.06;;;9.74;40.22
19761;BME280;10039;42.632;23.408;2023-03-18T14:00:38;95312.38;;;9.67;38.90
19761;BME280;10039;42.632;23.408;2023-03-18T14:03:13;95281.16;;;9.67;39.31
19761;BME280;10039;42.632;23.408;2023-03-18T14:14:01;95303.22;;;9.68;38.14
19761;BME280;10039;42.632;23.408;2023-03-18T14:16:46;95306.50;;;9.82;38.12
19761;BME280;10039;42.632;23.408;2023-03-18T14:21:50;95291.53;;;9.58;38.42
19761;BME280;10039;42.632;23.408;2023-03-18T14:26:47;95307.72;;;9.74;38.55
19761;BME280;10039;42.632;23.408;2023-03-18T14:32:02;95299.81;;;9.67;38.73
19761;BME280;10039;42.632;23.408;2023-03-18T14:34:56;95301.97;;;9.79;38.51
19761;BME280;10039;42.632;23.408;2023-03-18T14:39:50;95278.25;;;9.88;37.33
19761;BME280;10039;42.632;23.408;2023-03-18T14:42:28;95288.06;;;9.95;38.24
19761;BME280;10039;42.632;23.408;2023-03-18T14:50:19;95301.16;;;9.82;38.22
19761;BME280;10039;42.632;23.408;2023-03-18T14:55:29;95300.13;;;9.73;38.54